createdAt,value
2023-05-15T00:00:39.668Z,8.80
2023-05-15T00:03:31.611Z,13.20
2023-05-15T00:06:03.516Z,10.00
2023-05-15T00:08:35.287Z,9.80
2023-05-15T00:11:07.200Z,9.70
2023-05-15T00:13:39.518Z,15.90
2023-05-15T00:16:11.606Z,7.80
2023-05-15T00:18:43.504Z,7.80
2023-05-15T00:21:15.475Z,7.70
2023-05-15T00:23:47.573Z,8.80
2023-05-15T00:26:19.276Z,8.10
2023-05-15T00:28:51.293Z,8.70
2023-05-15T00:31:23.171Z,11.90
2023-05-15T00:33:54.910Z,12.90
2023-05-15T00:36:26.664Z,11.80
2023-05-15T00:38:58.434Z,13.00
2023-05-15T00:41:32.491Z,8.30
2023-05-15T00:44:06.184Z,9.20
2023-05-15T00:46:39.333Z,9.00
2023-05-15T00:49:13.729Z,10.40
2023-05-15T00:51:45.796Z,9.40
2023-05-15T00:54:17.558Z,9.30
2023-05-15T00:56:50.821Z,15.60
2023-05-15T00:59:23.854Z,10.80
2023-05-15T01:01:55.693Z,11.10
2023-05-15T01:04:27.702Z,12.60
2023-05-15T01:06:59.414Z,13.00
2023-05-15T01:09:34.192Z,14.20
2023-05-15T01:12:08.689Z,12.00
2023-05-15T01:14:40.481Z,12.10
2023-05-15T01:17:12.380Z,7.70
2023-05-15T01:19:46.564Z,10.10
2023-05-15T01:22:42.510Z,12.00
2023-05-15T01:25:46.123Z,13.60
2023-05-15T01:28:23.351Z,17.70
2023-05-15T01:30:58.975Z,11.10
2023-05-15T01:33:35.606Z,12.40
2023-05-15T01:36:14.591Z,12.30
2023-05-15T01:38:51.488Z,12.90
2023-05-15T01:41:28.412Z,12.50
2023-05-15T01:44:05.935Z,12.20
2023-05-15T01:46:43.968Z,14.30
2023-05-15T01:49:20.052Z,15.60
2023-05-15T01:51:56.106Z,12.40
2023-05-15T01:54:29.615Z,13.30
2023-05-15T01:57:02.839Z,13.20
2023-05-15T01:59:36.218Z,11.40
2023-05-15T02:02:10.701Z,13.90
2023-05-15T02:04:44.709Z,12.10
2023-05-15T02:07:18.878Z,17.00
2023-05-15T02:09:52.050Z,13.70
2023-05-15T02:12:25.113Z,14.40
2023-05-15T02:14:58.845Z,14.00
2023-05-15T02:17:31.378Z,12.50
2023-05-15T02:20:05.048Z,12.70
2023-05-15T02:22:37.021Z,15.70
2023-05-15T02:25:09.726Z,11.70
2023-05-15T02:27:49.517Z,12.80
2023-05-15T02:30:35.355Z,13.30
2023-05-15T02:33:19.575Z,13.50
2023-05-15T02:35:58.084Z,12.40
2023-05-15T02:38:34.688Z,12.00
2023-05-15T02:41:08.789Z,15.10
2023-05-15T02:43:42.923Z,13.20
2023-05-15T02:46:16.419Z,11.10
2023-05-15T02:48:49.289Z,12.20
2023-05-15T02:53:51.716Z,15.20
2023-05-15T02:56:23.472Z,11.10
2023-05-15T02:58:55.453Z,13.00
2023-05-15T03:01:27.313Z,12.10
2023-05-15T03:03:59.111Z,10.10
2023-05-15T03:06:31.569Z,13.20
2023-05-15T03:09:03.472Z,11.90
2023-05-15T03:11:35.708Z,18.60
2023-05-15T03:14:07.466Z,14.00
2023-05-15T03:16:39.530Z,13.30
2023-05-15T03:19:11.528Z,15.70
2023-05-15T03:21:43.337Z,11.00
2023-05-15T03:24:15.183Z,13.20
2023-05-15T03:26:46.891Z,10.40
2023-05-15T03:29:18.593Z,12.50
2023-05-15T03:31:50.647Z,13.40
2023-05-15T03:34:22.486Z,17.20
2023-05-15T03:36:54.231Z,14.60
2023-05-15T03:39:25.989Z,12.30
2023-05-15T03:41:57.728Z,12.40
2023-05-15T03:44:29.773Z,19.60
2023-05-15T03:47:02.636Z,15.50
2023-05-15T03:49:35.047Z,15.60
2023-05-15T03:52:09.972Z,19.30
2023-05-15T03:57:13.245Z,14.60
2023-05-15T03:59:44.951Z,16.70
2023-05-15T04:02:16.661Z,24.80
2023-05-15T04:04:48.846Z,15.50
2023-05-15T04:07:20.836Z,13.40
2023-05-15T04:09:52.538Z,19.30
2023-05-15T04:12:27.148Z,17.50
2023-05-15T04:15:00.218Z,19.50
2023-05-15T04:17:31.966Z,16.30
2023-05-15T04:20:04.137Z,21.00
2023-05-15T04:22:36.004Z,20.60
2023-05-15T04:25:09.131Z,18.80
2023-05-15T04:27:41.346Z,22.10
2023-05-15T04:30:14.436Z,23.60
2023-05-15T04:32:46.375Z,19.70
2023-05-15T04:35:18.167Z,23.50
2023-05-15T04:37:50.016Z,20.30
2023-05-15T04:40:21.749Z,18.00
2023-05-15T04:42:53.857Z,24.40
2023-05-15T04:45:25.700Z,27.20
2023-05-15T04:47:57.763Z,26.90
2023-05-15T04:50:29.628Z,22.10
2023-05-15T04:53:01.377Z,15.60
2023-05-15T04:55:33.769Z,18.80
2023-05-15T04:58:05.672Z,25.50
2023-05-15T05:00:37.446Z,29.80
2023-05-15T05:03:09.206Z,23.70
2023-05-15T05:05:41.457Z,18.10
2023-05-15T05:08:13.252Z,22.80
2023-05-15T05:10:45.095Z,26.20
2023-05-15T05:13:16.835Z,28.50
2023-05-15T05:15:48.576Z,26.40
2023-05-15T05:18:20.420Z,20.80
2023-05-15T05:20:59.548Z,26.50
2023-05-15T05:23:32.135Z,29.20
2023-05-15T05:26:05.401Z,27.60
2023-05-15T05:28:38.010Z,22.60
2023-05-15T05:31:09.889Z,23.80
2023-05-15T05:33:42.286Z,29.10
2023-05-15T05:36:13.989Z,24.40
2023-05-15T05:38:46.040Z,25.00
2023-05-15T05:41:19.284Z,21.60
2023-05-15T05:43:50.956Z,29.50
2023-05-15T05:46:22.839Z,24.10
2023-05-15T05:48:54.826Z,21.70
2023-05-15T05:51:26.529Z,24.80
2023-05-15T05:53:58.400Z,19.80
2023-05-15T05:56:30.654Z,23.00
2023-05-15T05:59:02.785Z,20.90
2023-05-15T06:01:34.494Z,17.90
2023-05-15T06:04:06.632Z,20.80
2023-05-15T06:06:38.530Z,18.90
2023-05-15T06:09:10.328Z,16.40
2023-05-15T06:11:42.760Z,22.30
2023-05-15T06:14:14.547Z,29.10
2023-05-15T06:16:46.395Z,23.40
2023-05-15T06:19:18.336Z,26.80
2023-05-15T06:21:50.295Z,24.50
2023-05-15T06:24:21.987Z,25.30
2023-05-15T06:26:54.115Z,22.20
2023-05-15T06:29:25.927Z,22.20
2023-05-15T06:31:57.701Z,23.20
2023-05-15T06:34:30.215Z,19.30
2023-05-15T06:37:02.792Z,24.90
2023-05-15T06:39:34.526Z,24.60
2023-05-15T06:42:06.941Z,23.10
2023-05-15T06:44:39.850Z,23.20
2023-05-15T06:47:11.730Z,20.00
2023-05-15T06:49:43.627Z,21.30
2023-05-15T06:52:15.739Z,30.70
2023-05-15T06:54:48.428Z,30.70
2023-05-15T06:57:20.296Z,27.20
2023-05-15T06:59:52.046Z,24.00
2023-05-15T07:02:23.923Z,26.30
2023-05-15T07:04:56.234Z,17.80
2023-05-15T07:07:28.122Z,26.50
2023-05-15T07:09:59.966Z,24.80
2023-05-15T07:12:32.812Z,24.50
2023-05-15T07:15:04.762Z,22.40
2023-05-15T07:17:36.709Z,15.10
2023-05-15T07:20:10.463Z,13.20
2023-05-15T07:22:55.012Z,17.70
2023-05-15T07:25:28.022Z,14.30
2023-05-15T07:28:00.195Z,17.60
2023-05-15T07:30:32.074Z,21.50
2023-05-15T07:33:03.941Z,36.60
2023-05-15T07:35:35.796Z,17.30
2023-05-15T07:38:07.525Z,35.30
2023-05-15T07:40:39.616Z,32.40
2023-05-15T07:43:11.417Z,28.30
2023-05-15T07:45:43.484Z,38.90
2023-05-15T07:48:20.035Z,28.50
2023-05-15T07:50:52.333Z,19.30
2023-05-15T07:53:24.210Z,25.80
2023-05-15T07:55:56.418Z,30.00
2023-05-15T07:58:28.904Z,33.60
2023-05-15T08:01:00.711Z,24.30
2023-05-15T08:03:33.896Z,34.80
2023-05-15T08:06:08.075Z,33.50
2023-05-15T08:08:39.840Z,34.20
2023-05-15T08:11:11.461Z,31.60
2023-05-15T08:13:43.244Z,34.30
2023-05-15T08:16:14.998Z,81.40
2023-05-15T08:18:46.859Z,59.80
2023-05-15T08:21:18.712Z,40.30
2023-05-15T08:23:50.704Z,30.50
2023-05-15T08:26:22.509Z,27.00
2023-05-15T08:28:54.286Z,29.80
2023-05-15T08:31:26.032Z,26.20
2023-05-15T08:33:57.979Z,32.40
2023-05-15T08:36:29.859Z,21.50
2023-05-15T08:39:01.739Z,21.70
2023-05-15T08:41:40.901Z,26.60
2023-05-15T08:44:13.977Z,32.50
2023-05-15T08:49:23.366Z,29.30
2023-05-15T08:51:56.481Z,23.90
2023-05-15T08:54:28.889Z,26.30
2023-05-15T08:57:01.163Z,27.00
2023-05-15T08:59:33.262Z,29.00
2023-05-15T09:02:05.312Z,27.90
2023-05-15T09:04:37.501Z,22.70
2023-05-15T09:07:11.391Z,22.60
2023-05-15T09:09:44.175Z,28.30
2023-05-15T09:14:48.128Z,43.00
2023-05-15T09:17:19.916Z,45.60
2023-05-15T09:19:51.583Z,32.40
2023-05-15T09:22:25.824Z,31.20
2023-05-15T09:24:58.160Z,47.00
2023-05-15T09:27:29.991Z,61.30
2023-05-15T09:30:12.440Z,48.40
2023-05-15T09:32:44.775Z,34.50
2023-05-15T09:35:32.197Z,45.70
2023-05-15T09:38:05.756Z,47.60
2023-05-15T09:40:37.478Z,40.50
2023-05-15T09:43:10.808Z,45.20
2023-05-15T09:45:43.159Z,57.70
2023-05-15T09:48:15.698Z,31.60
2023-05-15T09:50:47.858Z,31.70
2023-05-15T09:53:21.381Z,30.10
2023-05-15T09:55:55.120Z,28.70
2023-05-15T09:58:26.836Z,25.10
2023-05-15T10:01:02.734Z,31.30
2023-05-15T10:03:34.620Z,25.90
2023-05-15T10:06:07.027Z,26.50
2023-05-15T10:08:41.625Z,25.00
2023-05-15T10:11:14.041Z,25.20
2023-05-15T10:13:46.283Z,25.40
2023-05-15T10:16:20.940Z,24.20
2023-05-15T10:18:53.916Z,26.80
2023-05-15T10:21:26.856Z,27.20
2023-05-15T10:24:01.021Z,25.30
2023-05-15T10:26:39.193Z,25.00
2023-05-15T10:29:12.932Z,27.00
2023-05-15T10:31:46.399Z,24.40
2023-05-15T10:34:19.475Z,24.60
2023-05-15T10:36:52.711Z,25.20
2023-05-15T10:39:25.291Z,23.30
2023-05-15T10:41:59.425Z,24.80
2023-05-15T10:44:31.244Z,20.90
2023-05-15T10:47:04.650Z,22.50
2023-05-15T10:49:36.854Z,25.60
2023-05-15T10:52:10.061Z,21.00
2023-05-15T10:54:42.165Z,23.50
2023-05-15T10:57:15.165Z,24.90
2023-05-15T10:59:46.918Z,22.60
2023-05-15T11:02:26.364Z,25.20
2023-05-15T11:04:59.337Z,25.00
2023-05-15T11:07:31.131Z,21.80
2023-05-15T11:10:23.004Z,28.50
2023-05-15T11:13:02.665Z,22.90
2023-05-15T11:15:44.475Z,25.20
2023-05-15T11:18:16.979Z,24.30
2023-05-15T11:21:11.172Z,22.60
2023-05-15T11:23:43.927Z,21.60
2023-05-15T11:28:47.884Z,23.20
2023-05-15T11:31:30.524Z,22.30
2023-05-15T11:34:07.588Z,20.70
2023-05-15T11:36:41.279Z,21.60
2023-05-15T11:39:14.223Z,23.50
2023-05-15T11:41:46.073Z,23.00
2023-05-15T11:44:22.778Z,23.70
2023-05-15T11:46:56.120Z,25.40
2023-05-15T11:49:29.285Z,24.00
2023-05-15T11:52:02.102Z,24.90
2023-05-15T11:57:05.076Z,26.90
2023-05-15T11:59:37.879Z,26.40
2023-05-15T12:02:09.785Z,24.00
2023-05-15T12:04:41.794Z,21.50
2023-05-15T12:07:13.968Z,27.10
2023-05-15T12:09:50.917Z,24.00
2023-05-15T12:12:26.779Z,26.60
2023-05-15T12:15:01.610Z,24.80
2023-05-15T12:17:34.047Z,25.40
2023-05-15T12:20:10.541Z,26.50
2023-05-15T12:22:42.976Z,26.20
2023-05-15T12:25:16.357Z,22.80
2023-05-15T12:27:48.366Z,25.60
2023-05-15T12:30:21.170Z,25.60
2023-05-15T12:35:23.771Z,24.00
2023-05-15T12:37:55.607Z,21.70
2023-05-15T12:40:28.110Z,24.10
2023-05-15T12:43:00.076Z,31.30
2023-05-15T12:45:35.270Z,18.00
2023-05-15T12:48:08.093Z,26.50
2023-05-15T12:50:40.382Z,24.80
2023-05-15T12:53:15.843Z,26.80
2023-05-15T12:55:48.833Z,27.60
2023-05-15T12:58:21.317Z,27.30
2023-05-15T13:00:54.899Z,23.60
2023-05-15T13:03:27.991Z,26.50
2023-05-15T13:06:00.373Z,26.50
2023-05-15T13:08:32.484Z,31.40
2023-05-15T13:11:04.338Z,27.80
2023-05-15T13:13:47.200Z,32.20
2023-05-15T13:16:29.462Z,26.00
2023-05-15T13:19:01.626Z,27.80
2023-05-15T13:21:33.862Z,36.00
2023-05-15T13:24:06.280Z,29.40
2023-05-15T13:26:38.043Z,37.40
2023-05-15T13:29:10.249Z,27.10
2023-05-15T13:31:42.287Z,34.20
2023-05-15T13:34:13.985Z,29.30
2023-05-15T13:36:45.683Z,30.40
2023-05-15T13:39:17.562Z,32.20
2023-05-15T13:41:49.262Z,31.90
2023-05-15T13:44:21.068Z,33.20
2023-05-15T13:46:52.863Z,31.40
2023-05-15T13:49:25.623Z,34.60
2023-05-15T13:54:27.551Z,32.00
2023-05-15T13:56:59.226Z,38.90
2023-05-15T13:59:31.357Z,42.20
2023-05-15T14:02:03.002Z,41.30
2023-05-15T14:04:35.154Z,31.90
2023-05-15T14:07:07.485Z,30.20
2023-05-15T14:09:39.956Z,30.00
2023-05-15T14:12:12.284Z,41.40
2023-05-15T14:14:46.075Z,37.30
2023-05-15T14:17:18.268Z,29.80
2023-05-15T14:19:50.248Z,29.20
2023-05-15T14:22:24.781Z,32.10
2023-05-15T14:24:56.863Z,27.70
2023-05-15T14:27:28.775Z,26.40
2023-05-15T14:30:01.325Z,28.50
2023-05-15T14:32:33.421Z,25.10
2023-05-15T14:35:05.824Z,28.60
2023-05-15T14:37:39.244Z,26.60
2023-05-15T14:40:14.041Z,24.60
2023-05-15T14:42:45.869Z,22.80
2023-05-15T14:45:17.525Z,24.80
2023-05-15T14:47:49.592Z,23.90
2023-05-15T14:50:22.495Z,24.50
2023-05-15T14:52:54.681Z,24.30
2023-05-15T14:55:26.568Z,25.70
2023-05-15T14:58:00.454Z,24.80
2023-05-15T15:00:32.221Z,25.30
2023-05-15T15:03:03.994Z,27.20
2023-05-15T15:05:35.898Z,23.70
2023-05-15T15:08:09.625Z,21.90
2023-05-15T15:10:43.429Z,24.30
2023-05-15T15:13:16.488Z,22.00
2023-05-15T15:15:48.906Z,24.40
2023-05-15T15:18:21.213Z,18.40
2023-05-15T15:20:52.997Z,22.00
2023-05-15T15:23:25.026Z,20.90
2023-05-15T15:25:56.860Z,22.60
2023-05-15T15:28:33.537Z,21.00
2023-05-15T15:31:06.024Z,21.80
2023-05-15T15:33:38.116Z,23.80
2023-05-15T15:36:10.398Z,21.40
2023-05-15T15:38:43.801Z,29.40
2023-05-15T15:41:15.700Z,24.60
2023-05-15T15:43:47.429Z,27.50
2023-05-15T15:46:19.361Z,28.50
2023-05-15T15:48:51.319Z,18.80
2023-05-15T15:51:23.126Z,27.80
2023-05-15T15:53:55.221Z,32.30
2023-05-15T15:56:27.054Z,29.70
2023-05-15T15:58:58.978Z,26.60
2023-05-15T16:01:31.270Z,28.60
2023-05-15T16:04:03.758Z,30.10
2023-05-15T16:06:35.941Z,30.90
2023-05-15T16:09:07.937Z,34.30
2023-05-15T16:11:39.627Z,31.10
2023-05-15T16:14:11.913Z,29.20
2023-05-15T16:16:43.773Z,34.90
2023-05-15T16:19:16.495Z,29.00
2023-05-15T16:24:19.793Z,34.60
2023-05-15T16:26:52.210Z,30.20
2023-05-15T16:29:24.041Z,28.80
2023-05-15T16:31:57.230Z,30.70
2023-05-15T16:34:29.332Z,32.40
2023-05-15T16:37:01.226Z,35.60
2023-05-15T16:39:38.270Z,33.70
2023-05-15T16:42:10.088Z,33.20
2023-05-15T16:44:42.312Z,32.50
2023-05-15T16:47:14.210Z,31.00
2023-05-15T16:49:48.271Z,30.00
2023-05-15T16:52:22.231Z,32.10
2023-05-15T16:54:56.375Z,29.50
2023-05-15T16:57:28.163Z,38.10
2023-05-15T16:59:59.994Z,27.10
2023-05-15T17:05:03.635Z,27.50
2023-05-15T17:07:35.430Z,27.30
2023-05-15T17:10:08.497Z,23.00
2023-05-15T17:12:40.727Z,24.60
2023-05-15T17:15:13.998Z,24.30
2023-05-15T17:17:45.784Z,28.60
2023-05-15T17:20:17.739Z,41.90
2023-05-15T17:22:50.812Z,37.10
2023-05-15T17:25:22.614Z,44.90
2023-05-15T17:27:54.454Z,38.90
2023-05-15T17:30:26.907Z,34.50
2023-05-15T17:32:59.592Z,31.30
2023-05-15T17:35:33.189Z,24.00
2023-05-15T17:38:05.919Z,28.40
2023-05-15T17:40:39.082Z,23.30
2023-05-15T17:43:10.902Z,21.40
2023-05-15T17:45:43.291Z,23.70
2023-05-15T17:48:15.107Z,22.60
2023-05-15T17:50:47.037Z,19.50
2023-05-15T17:53:18.882Z,17.90
2023-05-15T17:55:51.051Z,14.70
2023-05-15T17:58:23.221Z,17.50
2023-05-15T18:00:55.124Z,12.00
2023-05-15T18:03:27.230Z,16.70
2023-05-15T18:05:59.558Z,15.70
2023-05-15T18:08:31.348Z,17.70
2023-05-15T18:11:11.062Z,15.30
2023-05-15T18:13:50.049Z,13.40
2023-05-15T18:16:22.159Z,15.80
2023-05-15T18:18:54.279Z,17.60
2023-05-15T18:21:26.087Z,15.10
2023-05-15T18:23:57.849Z,14.40
2023-05-15T18:26:31.241Z,16.50
2023-05-15T18:29:03.322Z,17.90
2023-05-15T18:31:35.370Z,13.90
2023-05-15T18:34:07.447Z,15.30
2023-05-15T18:36:39.413Z,10.70
2023-05-15T18:39:11.225Z,14.80
2023-05-15T18:41:43.750Z,14.90
2023-05-15T18:44:15.607Z,18.10
2023-05-15T18:46:47.502Z,17.20
2023-05-15T18:49:19.222Z,18.60
2023-05-15T18:51:50.898Z,18.20
2023-05-15T18:54:22.718Z,16.60
2023-05-15T18:56:54.522Z,17.90
2023-05-15T18:59:27.020Z,18.00
2023-05-15T19:01:58.803Z,19.60
2023-05-15T19:04:30.628Z,16.70
2023-05-15T19:07:02.413Z,17.60
2023-05-15T19:09:34.288Z,19.80
2023-05-15T19:12:06.580Z,21.70
2023-05-15T19:14:38.399Z,17.40
2023-05-15T19:17:10.102Z,17.90
2023-05-15T19:19:42.026Z,20.80
2023-05-15T19:22:14.084Z,18.70
2023-05-15T19:24:45.964Z,18.20
2023-05-15T19:27:17.719Z,18.30
2023-05-15T19:29:49.821Z,18.10
2023-05-15T19:32:21.871Z,18.20
2023-05-15T19:34:53.795Z,16.50
2023-05-15T19:37:25.678Z,18.50
2023-05-15T19:39:57.872Z,19.10
2023-05-15T19:42:29.761Z,17.40
2023-05-15T19:45:01.558Z,18.50
2023-05-15T19:47:33.497Z,17.30
2023-05-15T19:50:06.315Z,18.50
2023-05-15T19:52:38.519Z,20.10
2023-05-15T19:55:11.797Z,18.20
2023-05-15T19:57:44.936Z,18.40
2023-05-15T20:00:21.119Z,18.10
2023-05-15T20:02:56.436Z,21.10
2023-05-15T20:05:30.652Z,16.70
2023-05-15T20:08:03.379Z,21.10
2023-05-15T20:10:37.653Z,18.20
2023-05-15T20:13:11.307Z,18.90
2023-05-15T20:15:43.516Z,19.60
2023-05-15T20:18:16.097Z,18.80
2023-05-15T20:20:47.846Z,17.50
2023-05-15T20:23:20.206Z,15.80
2023-05-15T20:25:52.900Z,17.60
2023-05-15T20:28:25.973Z,16.80
2023-05-15T20:31:01.781Z,19.80
2023-05-15T20:33:34.211Z,19.30
2023-05-15T20:36:06.275Z,20.20
2023-05-15T20:38:40.487Z,15.90
2023-05-15T20:41:12.319Z,18.80
2023-05-15T20:43:44.615Z,18.30
2023-05-15T20:46:16.967Z,20.20
2023-05-15T20:48:48.986Z,15.40
2023-05-15T20:51:21.726Z,15.10
2023-05-15T20:56:23.846Z,18.00
2023-05-15T20:58:56.850Z,16.10
2023-05-15T21:01:30.877Z,16.70
2023-05-15T21:04:02.939Z,16.70
2023-05-15T21:06:34.779Z,14.50
2023-05-15T21:09:07.579Z,15.40
2023-05-15T21:11:39.866Z,15.00
2023-05-15T21:14:11.757Z,15.80
2023-05-15T21:16:44.170Z,19.20
2023-05-15T21:19:16.393Z,17.00
2023-05-15T21:21:48.424Z,19.00
2023-05-15T21:24:21.395Z,14.50
2023-05-15T21:26:53.043Z,16.70
2023-05-15T21:29:24.814Z,17.80
2023-05-15T21:31:57.247Z,15.80
2023-05-15T21:34:29.014Z,19.50
2023-05-15T21:37:00.885Z,18.50
2023-05-15T21:39:32.875Z,12.50
2023-05-15T21:42:04.958Z,15.30
2023-05-15T21:44:37.144Z,17.40
2023-05-15T21:47:09.394Z,15.90
2023-05-15T21:49:41.288Z,15.70
2023-05-15T21:52:13.820Z,15.40
2023-05-15T21:54:46.149Z,17.60
2023-05-15T21:57:18.009Z,17.00
2023-05-15T21:59:49.727Z,16.20
2023-05-15T22:02:22.479Z,16.50
2023-05-15T22:04:54.522Z,17.20
2023-05-15T22:07:26.325Z,14.80
2023-05-15T22:09:58.137Z,15.90
2023-05-15T22:12:29.873Z,17.60
2023-05-15T22:15:02.356Z,14.00
2023-05-15T22:17:36.244Z,17.30
2023-05-15T22:20:11.416Z,14.50
2023-05-15T22:22:44.797Z,14.20
2023-05-15T22:25:16.501Z,13.90
2023-05-15T22:27:48.877Z,16.40
2023-05-15T22:30:20.947Z,16.40
2023-05-15T22:32:52.742Z,17.50
2023-05-15T22:35:25.152Z,17.20
2023-05-15T22:37:57.212Z,16.00
2023-05-15T22:40:29.132Z,10.60
2023-05-15T22:43:01.042Z,18.40
2023-05-15T22:45:32.827Z,14.90
2023-05-15T22:48:04.681Z,16.70
2023-05-15T22:50:36.856Z,18.40
2023-05-15T22:53:09.114Z,15.50
2023-05-15T22:55:40.836Z,20.90
2023-05-15T22:58:12.682Z,19.50
2023-05-15T23:00:44.590Z,16.50
2023-05-15T23:03:16.357Z,19.30
2023-05-15T23:05:48.670Z,17.10
2023-05-15T23:08:20.422Z,21.10
2023-05-15T23:10:53.132Z,20.90
2023-05-15T23:15:55.373Z,17.80
2023-05-15T23:18:27.138Z,22.40
2023-05-15T23:20:58.872Z,20.80
2023-05-15T23:23:30.572Z,18.40
2023-05-15T23:26:02.276Z,22.30
2023-05-15T23:28:34.043Z,22.00
2023-05-15T23:31:05.832Z,23.40
2023-05-15T23:33:37.696Z,19.50
2023-05-15T23:36:09.891Z,24.10
2023-05-15T23:38:42.176Z,21.60
2023-05-15T23:41:13.942Z,23.00
2023-05-15T23:43:45.653Z,22.90
2023-05-15T23:46:17.453Z,21.50
2023-05-15T23:48:49.691Z,18.90
2023-05-15T23:51:22.124Z,22.40
2023-05-15T23:53:53.890Z,21.00
2023-05-15T23:56:25.534Z,24.40
2023-05-15T23:58:57.187Z,20.60
